sensor_id;sensor_type;location;lat;lon;timestamp;pressure;altitude;pressure_sealevel;temperature;humidity
74881;BME280;63427;49.654;6.596;2023-12-07T00:01:56;100125.59;;;6.69;41.97
74881;BME280;63427;49.654;6.596;2023-12-07T00:04:22;100121.09;;;6.46;42.05
74881;BME280;63427;49.654;6.596;2023-12-07T00:06:48;100122.13;;;6.73;41.77
74881;BME280;63427;49.654;6.596;2023-12-07T00:09:13;100127.74;;;6.47;41.94
74881;BME280;63427;49.654;6.596;2023-12-07T00:11:38;100129.64;;;6.75;42.11
74881;BME280;63427;49.654;6.596;2023-12-07T00:14:04;100133.06;;;5.99;42.95
74881;BME280;63427;49.654;6.596;2023-12-07T00:16:30;100137.64;;;6.58;41.95
74881;BME280;63427;49.654;6.596;2023-12-07T00:18:55;100138.43;;;6.35;42.26
74881;BME280;63427;49.654;6.596;2023-12-07T00:21:21;100136.95;;;6.25;42.58
74881;BME280;63427;49.654;6.596;2023-12-07T00:31:02;100136.02;;;6.85;41.08
74881;BME280;63427;49.654;6.596;2023-12-07T00:33:27;100136.61;;;7.19;40.89
74881;BME280;63427;49.654;6.596;2023-12-07T00:35:52;100136.73;;;6.70;41.20
74881;BME280;63427;49.654;6.596;2023-12-07T00:38:18;100133.76;;;6.95;41.37
74881;BME280;63427;49.654;6.596;2023-12-07T00:40:43;100133.15;;;7.30;40.96
74881;BME280;63427;49.654;6.596;2023-12-07T00:43:08;100128.94;;;7.19;40.76
74881;BME280;63427;49.654;6.596;2023-12-07T00:45:34;100131.06;;;7.10;41.16
74881;BME280;63427;49.654;6.596;2023-12-07T00:48:00;100131.01;;;7.02;41.38
74881;BME280;63427;49.654;6.596;2023-12-07T00:50:26;100132.33;;;6.96;40.86
74881;BME280;63427;49.654;6.596;2023-12-07T00:52:51;100134.39;;;6.89;40.92
74881;BME280;63427;49.654;6.596;2023-12-07T00:55:16;100136.49;;;6.74;41.19
74881;BME280;63427;49.654;6.596;2023-12-07T00:57:42;100136.88;;;6.86;40.90
74881;BME280;63427;49.654;6.596;2023-12-07T01:00:09;100136.47;;;6.81;40.92
74881;BME280;63427;49.654;6.596;2023-12-07T01:02:33;100141.48;;;6.87;40.80
74881;BME280;63427;49.654;6.596;2023-12-07T01:04:59;100142.49;;;7.05;40.79
74881;BME280;63427;49.654;6.596;2023-12-07T01:07:24;100147.01;;;6.92;40.61
74881;BME280;63427;49.654;6.596;2023-12-07T01:09:49;100148.51;;;6.92;40.83
74881;BME280;63427;49.654;6.596;2023-12-07T01:12:15;100151.35;;;6.43;40.89
74881;BME280;63427;49.654;6.596;2023-12-07T01:14:40;100151.14;;;6.90;40.43
74881;BME280;63427;49.654;6.596;2023-12-07T01:17:06;100153.04;;;6.69;40.67
74881;BME280;63427;49.654;6.596;2023-12-07T01:19:31;100152.75;;;6.90;39.99
74881;BME280;63427;49.654;6.596;2023-12-07T01:21:56;100155.92;;;6.90;40.13
74881;BME280;63427;49.654;6.596;2023-12-07T01:24:22;100156.96;;;6.82;40.09
74881;BME280;63427;49.654;6.596;2023-12-07T01:26:48;100161.48;;;6.83;40.29
74881;BME280;63427;49.654;6.596;2023-12-07T01:29:13;100164.46;;;6.75;40.50
74881;BME280;63427;49.654;6.596;2023-12-07T01:31:39;100166.45;;;7.02;40.25
74881;BME280;63427;49.654;6.596;2023-12-07T01:34:04;100168.13;;;6.69;40.22
74881;BME280;63427;49.654;6.596;2023-12-07T01:36:30;100167.62;;;6.86;40.38
74881;BME280;63427;49.654;6.596;2023-12-07T01:38:55;100169.64;;;6.86;40.19
74881;BME280;63427;49.654;6.596;2023-12-07T01:41:20;100167.37;;;6.55;40.37
74881;BME280;63427;49.654;6.596;2023-12-07T01:43:46;100170.97;;;6.78;40.39
74881;BME280;63427;49.654;6.596;2023-12-07T01:46:12;100166.23;;;6.69;40.11
74881;BME280;63427;49.654;6.596;2023-12-07T01:48:37;100168.59;;;6.80;40.60
74881;BME280;63427;49.654;6.596;2023-12-07T01:51:03;100168.01;;;6.95;40.51
74881;BME280;63427;49.654;6.596;2023-12-07T01:53:28;100168.92;;;7.17;39.62
74881;BME280;63427;49.654;6.596;2023-12-07T01:55:53;100172.57;;;6.87;40.27
74881;BME280;63427;49.654;6.596;2023-12-07T01:58:19;100171.12;;;6.76;40.20
74881;BME280;63427;49.654;6.596;2023-12-07T02:00:44;100168.41;;;6.77;40.20
74881;BME280;63427;49.654;6.596;2023-12-07T02:03:09;100172.14;;;6.86;40.33
74881;BME280;63427;49.654;6.596;2023-12-07T02:05:35;100175.90;;;6.63;40.11
74881;BME280;63427;49.654;6.596;2023-12-07T02:08:00;100175.63;;;6.91;40.07
74881;BME280;63427;49.654;6.596;2023-12-07T02:15:18;100173.19;;;6.68;40.04
74881;BME280;63427;49.654;6.596;2023-12-07T02:32:14;100172.90;;;6.84;39.45
74881;BME280;63427;49.654;6.596;2023-12-07T02:34:40;100173.73;;;7.49;38.97
74881;BME280;63427;49.654;6.596;2023-12-07T02:37:11;100171.76;;;7.09;39.14
74881;BME280;63427;49.654;6.596;2023-12-07T02:39:31;100165.47;;;7.20;38.87
74881;BME280;63427;49.654;6.596;2023-12-07T02:46:49;100169.55;;;7.23;38.60
74881;BME280;63427;49.654;6.596;2023-12-07T02:49:13;100172.04;;;7.24;38.87
74881;BME280;63427;49.654;6.596;2023-12-07T02:51:39;100173.89;;;7.30;38.69
74881;BME280;63427;49.654;6.596;2023-12-07T02:54:05;100170.59;;;7.56;38.75
74881;BME280;63427;49.654;6.596;2023-12-07T02:56:31;100169.95;;;7.23;39.10
74881;BME280;63427;49.654;6.596;2023-12-07T02:58:56;100167.19;;;6.94;39.41
74881;BME280;63427;49.654;6.596;2023-12-07T03:01:22;100163.84;;;7.42;39.21
74881;BME280;63427;49.654;6.596;2023-12-07T03:03:47;100159.38;;;7.39;39.56
74881;BME280;63427;49.654;6.596;2023-12-07T03:06:13;100154.57;;;6.96;39.31
74881;BME280;63427;49.654;6.596;2023-12-07T03:08:39;100148.46;;;7.34;38.70
74881;BME280;63427;49.654;6.596;2023-12-07T03:13:29;100146.43;;;7.57;39.16
74881;BME280;63427;49.654;6.596;2023-12-07T03:15:55;100147.92;;;7.31;38.51
74881;BME280;63427;49.654;6.596;2023-12-07T03:18:22;100148.87;;;7.48;38.83
74881;BME280;63427;49.654;6.596;2023-12-07T03:20:46;100151.15;;;7.04;39.22
74881;BME280;63427;49.654;6.596;2023-12-07T03:23:12;100150.75;;;7.08;39.15
74881;BME280;63427;49.654;6.596;2023-12-07T03:25:37;100148.52;;;7.49;39.36
74881;BME280;63427;49.654;6.596;2023-12-07T03:28:02;100148.47;;;7.36;39.56
74881;BME280;63427;49.654;6.596;2023-12-07T03:30:28;100150.56;;;7.37;39.83
74881;BME280;63427;49.654;6.596;2023-12-07T03:32:53;100153.14;;;7.28;39.28
74881;BME280;63427;49.654;6.596;2023-12-07T03:35:19;100156.45;;;6.91;39.56
74881;BME280;63427;49.654;6.596;2023-12-07T03:37:44;100157.76;;;7.17;39.19
74881;BME280;63427;49.654;6.596;2023-12-07T03:40:12;100156.88;;;7.21;39.33
74881;BME280;63427;49.654;6.596;2023-12-07T03:42:36;100160.27;;;7.27;39.50
74881;BME280;63427;49.654;6.596;2023-12-07T03:45:01;100162.06;;;7.30;39.56
74881;BME280;63427;49.654;6.596;2023-12-07T03:47:27;100156.45;;;7.31;39.39
74881;BME280;63427;49.654;6.596;2023-12-07T03:49:51;100157.09;;;7.24;39.46
74881;BME280;63427;49.654;6.596;2023-12-07T03:52:31;100158.82;;;7.33;39.28
74881;BME280;63427;49.654;6.596;2023-12-07T03:54:43;100156.48;;;7.30;39.09
74881;BME280;63427;49.654;6.596;2023-12-07T03:57:09;100152.86;;;6.94;39.50
74881;BME280;63427;49.654;6.596;2023-12-07T03:59:36;100149.93;;;6.81;39.61
74881;BME280;63427;49.654;6.596;2023-12-07T04:01:59;100152.77;;;7.05;39.77
74881;BME280;63427;49.654;6.596;2023-12-07T04:04:24;100152.44;;;6.94;39.28
74881;BME280;63427;49.654;6.596;2023-12-07T04:06:50;100147.43;;;7.16;39.52
74881;BME280;63427;49.654;6.596;2023-12-07T04:09:15;100145.61;;;7.02;39.71
74881;BME280;63427;49.654;6.596;2023-12-07T04:14:06;100150.44;;;6.68;40.00
74881;BME280;63427;49.654;6.596;2023-12-07T04:16:32;100146.26;;;6.70;39.77
74881;BME280;63427;49.654;6.596;2023-12-07T04:18:57;100147.73;;;6.78;39.22
74881;BME280;63427;49.654;6.596;2023-12-07T04:21:23;100147.35;;;6.42;40.17
74881;BME280;63427;49.654;6.596;2023-12-07T04:23:48;100150.52;;;6.55;40.04
74881;BME280;63427;49.654;6.596;2023-12-07T04:26:14;100153.60;;;6.43;40.18
74881;BME280;63427;49.654;6.596;2023-12-07T04:33:31;100155.72;;;6.64;39.67
74881;BME280;63427;49.654;6.596;2023-12-07T04:35:56;100154.33;;;6.96;38.96
74881;BME280;63427;49.654;6.596;2023-12-07T04:38:26;100154.73;;;6.94;38.89
74881;BME280;63427;49.654;6.596;2023-12-07T04:40:47;100159.29;;;6.70;39.78
74881;BME280;63427;49.654;6.596;2023-12-07T04:43:12;100162.86;;;6.28;39.86
74881;BME280;63427;49.654;6.596;2023-12-07T04:45:37;100167.76;;;6.29;40.21
74881;BME280;63427;49.654;6.596;2023-12-07T04:50:29;100176.44;;;6.53;40.11
74881;BME280;63427;49.654;6.596;2023-12-07T04:55:20;100180.99;;;6.36;40.10
74881;BME280;63427;49.654;6.596;2023-12-07T04:57:45;100179.53;;;6.45;39.84
74881;BME280;63427;49.654;6.596;2023-12-07T05:00:15;100178.11;;;6.52;39.72
74881;BME280;63427;49.654;6.596;2023-12-07T05:02:36;100182.84;;;6.32;39.57
74881;BME280;63427;49.654;6.596;2023-12-07T05:05:02;100183.20;;;5.97;39.64
74881;BME280;63427;49.654;6.596;2023-12-07T05:07:28;100182.78;;;5.90;40.06
74881;BME280;63427;49.654;6.596;2023-12-07T05:09:53;100184.91;;;6.24;40.08
74881;BME280;63427;49.654;6.596;2023-12-07T05:12:19;100185.51;;;6.45;39.56
74881;BME280;63427;49.654;6.596;2023-12-07T05:14:45;100181.57;;;6.20;39.71
74881;BME280;63427;49.654;6.596;2023-12-07T05:17:10;100176.80;;;6.17;39.72
74881;BME280;63427;49.654;6.596;2023-12-07T05:19:35;100177.94;;;6.36;40.30
74881;BME280;63427;49.654;6.596;2023-12-07T05:22:01;100180.97;;;6.11;40.22
74881;BME280;63427;49.654;6.596;2023-12-07T05:24:27;100172.45;;;6.20;39.81
74881;BME280;63427;49.654;6.596;2023-12-07T05:27:01;100172.11;;;6.29;39.84
74881;BME280;63427;49.654;6.596;2023-12-07T05:29:18;100163.88;;;6.17;39.85
74881;BME280;63427;49.654;6.596;2023-12-07T05:31:44;100160.61;;;6.30;39.83
74881;BME280;63427;49.654;6.596;2023-12-07T05:34:19;100164.81;;;6.06;39.21
74881;BME280;63427;49.654;6.596;2023-12-07T05:36:34;100161.77;;;6.39;39.84
74881;BME280;63427;49.654;6.596;2023-12-07T05:39:00;100168.70;;;6.51;39.87
74881;BME280;63427;49.654;6.596;2023-12-07T05:41:26;100178.82;;;6.56;39.94
74881;BME280;63427;49.654;6.596;2023-12-07T05:46:17;100173.31;;;6.57;39.83
74881;BME280;63427;49.654;6.596;2023-12-07T05:48:43;100169.89;;;6.86;39.57
74881;BME280;63427;49.654;6.596;2023-12-07T05:51:14;100169.74;;;6.58;39.25
74881;BME280;63427;49.654;6.596;2023-12-07T05:53:34;100170.02;;;6.67;38.81
74881;BME280;63427;49.654;6.596;2023-12-07T05:56:00;100183.19;;;6.72;38.97
74881;BME280;63427;49.654;6.596;2023-12-07T05:58:26;100185.29;;;6.40;39.14
74881;BME280;63427;49.654;6.596;2023-12-07T06:00:51;100192.03;;;6.49;38.88
74881;BME280;63427;49.654;6.596;2023-12-07T06:03:17;100189.72;;;6.35;39.16
74881;BME280;63427;49.654;6.596;2023-12-07T06:05:42;100187.72;;;6.42;39.15
74881;BME280;63427;49.654;6.596;2023-12-07T06:08:08;100190.38;;;6.47;38.89
74881;BME280;63427;49.654;6.596;2023-12-07T06:10:33;100194.82;;;7.11;39.30
74881;BME280;63427;49.654;6.596;2023-12-07T06:12:59;100195.49;;;6.70;39.69
74881;BME280;63427;49.654;6.596;2023-12-07T06:15:24;100192.04;;;6.30;38.85
74881;BME280;63427;49.654;6.596;2023-12-07T06:22:40;100186.77;;;6.72;38.93
74881;BME280;63427;49.654;6.596;2023-12-07T06:25:06;100187.85;;;6.56;38.76
74881;BME280;63427;49.654;6.596;2023-12-07T06:27:31;100185.23;;;6.75;38.54
74881;BME280;63427;49.654;6.596;2023-12-07T06:34:47;100186.31;;;6.58;38.45
74881;BME280;63427;49.654;6.596;2023-12-07T06:37:13;100184.46;;;6.92;38.01
74881;BME280;63427;49.654;6.596;2023-12-07T06:39:38;100182.95;;;6.76;38.52
74881;BME280;63427;49.654;6.596;2023-12-07T06:42:04;100184.11;;;7.07;38.47
74881;BME280;63427;49.654;6.596;2023-12-07T06:44:29;100182.76;;;6.87;38.54
74881;BME280;63427;49.654;6.596;2023-12-07T06:46:55;100181.07;;;6.99;38.58
74881;BME280;63427;49.654;6.596;2023-12-07T06:49:20;100177.76;;;7.01;38.57
74881;BME280;63427;49.654;6.596;2023-12-07T06:51:46;100179.43;;;7.13;38.56
74881;BME280;63427;49.654;6.596;2023-12-07T06:54:12;100178.03;;;6.64;38.65
74881;BME280;63427;49.654;6.596;2023-12-07T06:56:38;100175.27;;;6.55;38.33
74881;BME280;63427;49.654;6.596;2023-12-07T06:59:03;100171.30;;;6.82;38.48
74881;BME280;63427;49.654;6.596;2023-12-07T07:01:29;100170.19;;;6.83;38.66
74881;BME280;63427;49.654;6.596;2023-12-07T07:03:55;100175.40;;;6.41;37.98
74881;BME280;63427;49.654;6.596;2023-12-07T07:06:20;100175.47;;;6.37;38.66
74881;BME280;63427;49.654;6.596;2023-12-07T07:08:46;100168.54;;;6.67;38.80
74881;BME280;63427;49.654;6.596;2023-12-07T07:11:13;100162.92;;;6.64;38.73
74881;BME280;63427;49.654;6.596;2023-12-07T07:13:36;100159.85;;;6.62;38.85
74881;BME280;63427;49.654;6.596;2023-12-07T07:16:02;100160.61;;;6.67;38.71
74881;BME280;63427;49.654;6.596;2023-12-07T07:18:27;100163.27;;;6.70;38.75
74881;BME280;63427;49.654;6.596;2023-12-07T07:23:19;100160.88;;;6.77;38.49
74881;BME280;63427;49.654;6.596;2023-12-07T07:25:44;100166.48;;;6.57;38.53
74881;BME280;63427;49.654;6.596;2023-12-07T07:28:09;100166.23;;;6.61;38.61
74881;BME280;63427;49.654;6.596;2023-12-07T07:30:35;100165.43;;;6.78;38.73
74881;BME280;63427;49.654;6.596;2023-12-07T07:33:01;100161.51;;;6.64;38.72
74881;BME280;63427;49.654;6.596;2023-12-07T07:35:26;100154.62;;;6.91;39.05
74881;BME280;63427;49.654;6.596;2023-12-07T07:37:51;100153.07;;;6.75;39.24
74881;BME280;63427;49.654;6.596;2023-12-07T07:40:16;100150.28;;;6.74;39.37
74881;BME280;63427;49.654;6.596;2023-12-07T07:42:42;100146.74;;;6.52;39.76
74881;BME280;63427;49.654;6.596;2023-12-07T07:47:33;100131.18;;;6.17;39.48
74881;BME280;63427;49.654;6.596;2023-12-07T07:49:58;100125.75;;;6.22;39.13
74881;BME280;63427;49.654;6.596;2023-12-07T07:52:23;100132.95;;;6.15;39.16
74881;BME280;63427;49.654;6.596;2023-12-07T07:54:48;100145.16;;;6.07;39.47
74881;BME280;63427;49.654;6.596;2023-12-07T07:57:14;100152.20;;;6.36;39.04
74881;BME280;63427;49.654;6.596;2023-12-07T07:59:44;100154.15;;;6.28;39.34
74881;BME280;63427;49.654;6.596;2023-12-07T08:02:05;100145.67;;;6.40;39.53
74881;BME280;63427;49.654;6.596;2023-12-07T08:04:30;100134.79;;;6.49;39.55
74881;BME280;63427;49.654;6.596;2023-12-07T08:06:56;100128.02;;;6.22;39.55
74881;BME280;63427;49.654;6.596;2023-12-07T08:09:20;100129.00;;;6.29;39.54
74881;BME280;63427;49.654;6.596;2023-12-07T08:11:45;100130.91;;;6.16;39.83
74881;BME280;63427;49.654;6.596;2023-12-07T08:19:02;100136.45;;;6.52;39.54
74881;BME280;63427;49.654;6.596;2023-12-07T08:21:28;100133.55;;;6.70;39.28
74881;BME280;63427;49.654;6.596;2023-12-07T08:23:53;100131.11;;;6.21;39.87
74881;BME280;63427;49.654;6.596;2023-12-07T08:26:19;100129.12;;;6.19;39.68
74881;BME280;63427;49.654;6.596;2023-12-07T08:28:44;100128.88;;;6.46;39.88
74881;BME280;63427;49.654;6.596;2023-12-07T08:31:09;100132.76;;;6.14;39.73
74881;BME280;63427;49.654;6.596;2023-12-07T08:33:35;100137.80;;;6.26;39.96
74881;BME280;63427;49.654;6.596;2023-12-07T08:36:00;100140.59;;;6.32;39.99
74881;BME280;63427;49.654;6.596;2023-12-07T08:38:26;100138.05;;;6.48;39.73
74881;BME280;63427;49.654;6.596;2023-12-07T08:40:52;100129.45;;;6.21;40.56
74881;BME280;63427;49.654;6.596;2023-12-07T08:43:20;100125.27;;;6.78;39.46
74881;BME280;63427;49.654;6.596;2023-12-07T08:45:42;100127.27;;;6.68;39.86
74881;BME280;63427;49.654;6.596;2023-12-07T08:50:33;100125.25;;;6.91;39.03
74881;BME280;63427;49.654;6.596;2023-12-07T08:52:58;100117.97;;;7.11;39.19
74881;BME280;63427;49.654;6.596;2023-12-07T08:55:24;100108.64;;;7.05;39.65
74881;BME280;63427;49.654;6.596;2023-12-07T08:57:49;100107.55;;;6.96;39.37
74881;BME280;63427;49.654;6.596;2023-12-07T09:00:15;100112.78;;;6.91;39.63
74881;BME280;63427;49.654;6.596;2023-12-07T09:02:40;100104.80;;;7.34;39.15
74881;BME280;63427;49.654;6.596;2023-12-07T09:05:07;100098.66;;;7.42;39.04
74881;BME280;63427;49.654;6.596;2023-12-07T09:07:32;100094.95;;;7.53;39.10
74881;BME280;63427;49.654;6.596;2023-12-07T09:09:57;100086.94;;;7.42;38.92
74881;BME280;63427;49.654;6.596;2023-12-07T09:12:23;100086.06;;;7.61;38.80
74881;BME280;63427;49.654;6.596;2023-12-07T09:14:48;100088.13;;;7.85;38.86
74881;BME280;63427;49.654;6.596;2023-12-07T09:17:13;100083.36;;;7.48;38.40
74881;BME280;63427;49.654;6.596;2023-12-07T09:19:39;100082.46;;;7.83;37.78
74881;BME280;63427;49.654;6.596;2023-12-07T09:22:04;100084.77;;;7.88;37.56
74881;BME280;63427;49.654;6.596;2023-12-07T09:24:29;100085.20;;;7.93;37.77
74881;BME280;63427;49.654;6.596;2023-12-07T09:26:55;100079.66;;;7.87;37.56
74881;BME280;63427;49.654;6.596;2023-12-07T09:29:21;100079.62;;;7.97;37.06
74881;BME280;63427;49.654;6.596;2023-12-07T09:31:46;100080.44;;;8.05;35.74
74881;BME280;63427;49.654;6.596;2023-12-07T09:34:12;100078.60;;;8.31;35.50
74881;BME280;63427;49.654;6.596;2023-12-07T09:36:37;100079.68;;;8.46;36.05
74881;BME280;63427;49.654;6.596;2023-12-07T09:39:03;100075.62;;;8.52;34.52
74881;BME280;63427;49.654;6.596;2023-12-07T09:41:29;100072.02;;;8.69;35.44
74881;BME280;63427;49.654;6.596;2023-12-07T09:43:53;100061.32;;;9.00;35.37
74881;BME280;63427;49.654;6.596;2023-12-07T09:48:44;100061.91;;;8.97;33.19
74881;BME280;63427;49.654;6.596;2023-12-07T09:51:10;100061.48;;;9.22;32.85
74881;BME280;63427;49.654;6.596;2023-12-07T09:53:34;100061.92;;;9.47;33.83
74881;BME280;63427;49.654;6.596;2023-12-07T09:56:00;100062.06;;;9.14;34.58
74881;BME280;63427;49.654;6.596;2023-12-07T09:58:26;100060.07;;;9.10;34.33
74881;BME280;63427;49.654;6.596;2023-12-07T10:00:51;100060.29;;;9.15;34.09
74881;BME280;63427;49.654;6.596;2023-12-07T10:03:22;100057.38;;;9.34;33.73
74881;BME280;63427;49.654;6.596;2023-12-07T10:08:06;100054.68;;;9.80;33.01
74881;BME280;63427;49.654;6.596;2023-12-07T10:10:32;100048.46;;;10.47;33.08
74881;BME280;63427;49.654;6.596;2023-12-07T10:12:59;100046.59;;;10.19;32.77
74881;BME280;63427;49.654;6.596;2023-12-07T10:15:23;100043.80;;;10.30;30.93
74881;BME280;63427;49.654;6.596;2023-12-07T10:17:49;100040.71;;;10.59;31.45
74881;BME280;63427;49.654;6.596;2023-12-07T10:20:15;100032.76;;;10.62;30.48
74881;BME280;63427;49.654;6.596;2023-12-07T10:22:39;100032.65;;;10.84;30.56
74881;BME280;63427;49.654;6.596;2023-12-07T10:25:04;100035.95;;;10.82;30.72
74881;BME280;63427;49.654;6.596;2023-12-07T10:27:29;100036.32;;;10.70;31.35
74881;BME280;63427;49.654;6.596;2023-12-07T10:29:55;100029.72;;;10.81;30.28
74881;BME280;63427;49.654;6.596;2023-12-07T10:32:22;100022.80;;;10.58;30.24
74881;BME280;63427;49.654;6.596;2023-12-07T10:34:46;100019.28;;;10.59;30.73
74881;BME280;63427;49.654;6.596;2023-12-07T10:37:11;100010.89;;;10.61;30.25
74881;BME280;63427;49.654;6.596;2023-12-07T10:39:36;100007.68;;;10.87;30.59
74881;BME280;63427;49.654;6.596;2023-12-07T10:42:02;100003.46;;;11.43;29.44
74881;BME280;63427;49.654;6.596;2023-12-07T10:46:54;99989.61;;;11.36;31.63
74881;BME280;63427;49.654;6.596;2023-12-07T10:49:19;99979.03;;;12.05;29.09
74881;BME280;63427;49.654;6.596;2023-12-07T10:51:47;99981.49;;;12.09;28.83
74881;BME280;63427;49.654;6.596;2023-12-07T10:54:11;99981.18;;;11.85;29.65
74881;BME280;63427;49.654;6.596;2023-12-07T10:56:40;99980.22;;;12.32;27.75
74881;BME280;63427;49.654;6.596;2023-12-07T11:01:26;99969.87;;;12.41;28.79
74881;BME280;63427;49.654;6.596;2023-12-07T11:03:52;99958.99;;;11.42;27.00
74881;BME280;63427;49.654;6.596;2023-12-07T11:06:18;99957.36;;;13.05;26.48
74881;BME280;63427;49.654;6.596;2023-12-07T11:08:46;99952.22;;;12.76;27.22
74881;BME280;63427;49.654;6.596;2023-12-07T11:11:16;99946.78;;;12.68;27.49
74881;BME280;63427;49.654;6.596;2023-12-07T11:13:36;99942.03;;;12.91;26.86
74881;BME280;63427;49.654;6.596;2023-12-07T11:15:59;99931.66;;;12.85;28.67
74881;BME280;63427;49.654;6.596;2023-12-07T11:18:25;99924.32;;;12.81;27.03
74881;BME280;63427;49.654;6.596;2023-12-07T11:20:50;99913.49;;;13.21;26.96
74881;BME280;63427;49.654;6.596;2023-12-07T11:23:16;99911.29;;;13.21;26.44
74881;BME280;63427;49.654;6.596;2023-12-07T11:25:46;99906.37;;;13.49;27.64
74881;BME280;63427;49.654;6.596;2023-12-07T11:28:07;99905.62;;;13.74;28.45
74881;BME280;63427;49.654;6.596;2023-12-07T11:30:47;99904.20;;;13.44;25.99
74881;BME280;63427;49.654;6.596;2023-12-07T11:32:57;99905.40;;;13.59;26.58
74881;BME280;63427;49.654;6.596;2023-12-07T11:35:31;99907.40;;;13.47;26.38
74881;BME280;63427;49.654;6.596;2023-12-07T11:40:13;99897.51;;;13.84;26.29
74881;BME280;63427;49.654;6.596;2023-12-07T11:42:38;99896.22;;;13.58;26.93
74881;BME280;63427;49.654;6.596;2023-12-07T11:45:06;99900.84;;;13.83;26.22
74881;BME280;63427;49.654;6.596;2023-12-07T11:47:29;99903.82;;;13.89;25.75
74881;BME280;63427;49.654;6.596;2023-12-07T11:49:55;99901.87;;;13.77;26.50
74881;BME280;63427;49.654;6.596;2023-12-07T11:52:21;99902.76;;;13.75;27.47
74881;BME280;63427;49.654;6.596;2023-12-07T11:54:47;99902.57;;;13.83;26.34
74881;BME280;63427;49.654;6.596;2023-12-07T11:57:13;99894.68;;;13.92;25.53
74881;BME280;63427;49.654;6.596;2023-12-07T12:28:44;99881.82;;;14.25;24.72
74881;BME280;63427;49.654;6.596;2023-12-07T12:31:09;99882.55;;;14.33;24.66
74881;BME280;63427;49.654;6.596;2023-12-07T12:33:41;99869.54;;;14.19;25.83
74881;BME280;63427;49.654;6.596;2023-12-07T12:36:03;99859.33;;;13.74;25.16
74881;BME280;63427;49.654;6.596;2023-12-07T12:38:24;99848.22;;;13.32;26.70
74881;BME280;63427;49.654;6.596;2023-12-07T12:40:51;99844.61;;;14.00;25.72
74881;BME280;63427;49.654;6.596;2023-12-07T12:43:15;99837.02;;;13.71;25.68
74881;BME280;63427;49.654;6.596;2023-12-07T12:45:41;99828.92;;;13.96;26.17
74881;BME280;63427;49.654;6.596;2023-12-07T12:48:06;99827.91;;;13.38;26.61
74881;BME280;63427;49.654;6.596;2023-12-07T12:50:34;99822.56;;;13.56;25.79
74881;BME280;63427;49.654;6.596;2023-12-07T12:52:58;99812.65;;;13.57;26.04
74881;BME280;63427;49.654;6.596;2023-12-07T12:55:22;99809.39;;;13.17;26.78
74881;BME280;63427;49.654;6.596;2023-12-07T12:57:47;99804.80;;;13.27;27.62
74881;BME280;63427;49.654;6.596;2023-12-07T13:00:13;99802.69;;;13.02;28.29
74881;BME280;63427;49.654;6.596;2023-12-07T13:02:37;99788.62;;;13.00;28.13
74881;BME280;63427;49.654;6.596;2023-12-07T13:05:03;99773.47;;;13.39;28.04
74881;BME280;63427;49.654;6.596;2023-12-07T13:07:27;99760.90;;;13.05;28.25
74881;BME280;63427;49.654;6.596;2023-12-07T13:09:53;99758.90;;;12.73;27.77
74881;BME280;63427;49.654;6.596;2023-12-07T13:12:18;99759.23;;;12.86;27.75
74881;BME280;63427;49.654;6.596;2023-12-07T13:14:44;99765.97;;;13.06;28.25
74881;BME280;63427;49.654;6.596;2023-12-07T13:17:19;99768.00;;;12.84;28.43
74881;BME280;63427;49.654;6.596;2023-12-07T13:22:00;99742.21;;;12.75;28.26
74881;BME280;63427;49.654;6.596;2023-12-07T13:24:25;99727.61;;;12.64;28.49
74881;BME280;63427;49.654;6.596;2023-12-07T13:26:51;99720.39;;;12.74;28.16
74881;BME280;63427;49.654;6.596;2023-12-07T13:29:16;99713.54;;;12.50;28.04
74881;BME280;63427;49.654;6.596;2023-12-07T13:31:41;99701.18;;;12.36;28.40
74881;BME280;63427;49.654;6.596;2023-12-07T13:34:06;99685.98;;;12.21;29.24
74881;BME280;63427;49.654;6.596;2023-12-07T13:36:32;99669.22;;;12.06;28.91
74881;BME280;63427;49.654;6.596;2023-12-07T13:38:57;99657.84;;;12.25;30.08
74881;BME280;63427;49.654;6.596;2023-12-07T13:41:22;99653.29;;;11.88;29.19
74881;BME280;63427;49.654;6.596;2023-12-07T13:43:48;99643.26;;;12.26;29.22
74881;BME280;63427;49.654;6.596;2023-12-07T13:46:13;99639.68;;;11.84;29.42
74881;BME280;63427;49.654;6.596;2023-12-07T13:48:38;99634.29;;;11.39;29.57
74881;BME280;63427;49.654;6.596;2023-12-07T13:51:04;99627.23;;;11.73;29.81
74881;BME280;63427;49.654;6.596;2023-12-07T13:53:29;99630.03;;;11.67;30.10
74881;BME280;63427;49.654;6.596;2023-12-07T13:55:55;99630.65;;;11.43;30.08
74881;BME280;63427;49.654;6.596;2023-12-07T13:58:20;99630.53;;;11.23;30.40
74881;BME280;63427;49.654;6.596;2023-12-07T14:00:45;99625.86;;;11.09;30.72
74881;BME280;63427;49.654;6.596;2023-12-07T14:03:11;99628.81;;;10.81;31.19
74881;BME280;63427;49.654;6.596;2023-12-07T14:05:36;99626.79;;;10.62;31.29
74881;BME280;63427;49.654;6.596;2023-12-07T14:08:02;99622.80;;;10.96;30.91
74881;BME280;63427;49.654;6.596;2023-12-07T14:10:27;99625.51;;;11.10;31.24
74881;BME280;63427;49.654;6.596;2023-12-07T14:17:51;99635.23;;;10.55;31.72
74881;BME280;63427;49.654;6.596;2023-12-07T14:20:11;99628.93;;;10.79;31.51
74881;BME280;63427;49.654;6.596;2023-12-07T14:22:35;99625.72;;;10.34;31.89
74881;BME280;63427;49.654;6.596;2023-12-07T14:25:01;99625.38;;;10.22;32.24
74881;BME280;63427;49.654;6.596;2023-12-07T14:27:30;99626.28;;;10.27;32.59
74881;BME280;63427;49.654;6.596;2023-12-07T14:29:52;99624.18;;;10.39;33.41
74881;BME280;63427;49.654;6.596;2023-12-07T14:32:17;99614.39;;;10.13;33.41
74881;BME280;63427;49.654;6.596;2023-12-07T14:34:43;99605.02;;;10.00;33.80
74881;BME280;63427;49.654;6.596;2023-12-07T14:37:08;99599.47;;;9.90;34.00
74881;BME280;63427;49.654;6.596;2023-12-07T14:39:34;99595.31;;;10.23;33.05
74881;BME280;63427;49.654;6.596;2023-12-07T14:42:07;99594.59;;;10.27;32.83
74881;BME280;63427;49.654;6.596;2023-12-07T14:44:24;99594.36;;;9.83;33.16
74881;BME280;63427;49.654;6.596;2023-12-07T14:46:50;99589.71;;;9.80;32.94
74881;BME280;63427;49.654;6.596;2023-12-07T14:51:41;99582.57;;;9.74;33.69